sensor_id;sensor_type;location;lat;lon;timestamp;pressure;altitude;pressure_sealevel;temperature;humidity
73692;BME280;61996;49.910;35.562;2023-07-16T00:00:24;99357.59;;;21.99;54.93
73692;BME280;61996;49.910;35.562;2023-07-16T00:03:27;99349.38;;;22.01;54.76
73692;BME280;61996;49.910;35.562;2023-07-16T00:06:32;99346.53;;;22.02;54.95
73692;BME280;61996;49.910;35.562;2023-07-16T00:09:34;99342.84;;;22.03;55.14
73692;BME280;61996;49.910;35.562;2023-07-16T00:12:37;99345.69;;;22.02;55.06
73692;BME280;61996;49.910;35.562;2023-07-16T00:15:40;99348.19;;;22.03;55.21
73692;BME280;61996;49.910;35.562;2023-07-16T00:18:44;99347.19;;;22.04;54.92
73692;BME280;61996;49.910;35.562;2023-07-16T00:21:48;99351.88;;;22.02;55.14
73692;BME280;61996;49.910;35.562;2023-07-16T00:24:51;99348.06;;;22.05;54.96
73692;BME280;61996;49.910;35.562;2023-07-16T00:27:54;99344.19;;;22.07;54.79
73692;BME280;61996;49.910;35.562;2023-07-16T00:30:57;99342.53;;;22.06;54.96
73692;BME280;61996;49.910;35.562;2023-07-16T00:34:00;99344.06;;;22.09;55.15
73692;BME280;61996;49.910;35.562;2023-07-16T00:37:04;99346.22;;;22.05;54.85
73692;BME280;61996;49.910;35.562;2023-07-16T00:40:08;99347.88;;;22.06;54.97
73692;BME280;61996;49.910;35.562;2023-07-16T00:43:10;99347.72;;;22.08;54.98
73692;BME280;61996;49.910;35.562;2023-07-16T00:46:13;99346.88;;;22.07;55.02
73692;BME280;61996;49.910;35.562;2023-07-16T00:49:17;99347.88;;;22.06;54.90
73692;BME280;61996;49.910;35.562;2023-07-16T00:52:21;99353.75;;;22.10;55.06
73692;BME280;61996;49.910;35.562;2023-07-16T00:55:25;99347.41;;;22.11;54.82
73692;BME280;61996;49.910;35.562;2023-07-16T00:58:27;99350.38;;;22.08;55.05
73692;BME280;61996;49.910;35.562;2023-07-16T01:01:30;99351.41;;;22.07;54.95
73692;BME280;61996;49.910;35.562;2023-07-16T01:04:33;99352.41;;;22.06;54.97
73692;BME280;61996;49.910;35.562;2023-07-16T01:07:37;99349.41;;;22.09;55.15
73692;BME280;61996;49.910;35.562;2023-07-16T01:10:43;99348.41;;;22.10;54.83
73692;BME280;61996;49.910;35.562;2023-07-16T01:13:46;99353.94;;;22.08;55.09
73692;BME280;61996;49.910;35.562;2023-07-16T01:16:49;99355.59;;;22.09;54.97
73692;BME280;61996;49.910;35.562;2023-07-16T01:19:54;99359.94;;;22.10;54.96
73692;BME280;61996;49.910;35.562;2023-07-16T01:23:05;99358.41;;;22.08;54.81
73692;BME280;61996;49.910;35.562;2023-07-16T01:26:26;99360.78;;;22.11;54.75
73692;BME280;61996;49.910;35.562;2023-07-16T01:29:36;99370.13;;;22.07;54.76
73692;BME280;61996;49.910;35.562;2023-07-16T01:32:39;99366.47;;;22.08;54.98
73692;BME280;61996;49.910;35.562;2023-07-16T01:35:43;99363.78;;;22.08;54.92
73692;BME280;61996;49.910;35.562;2023-07-16T01:38:46;99372.81;;;22.07;55.13
73692;BME280;61996;49.910;35.562;2023-07-16T01:41:49;99374.50;;;22.08;55.27
73692;BME280;61996;49.910;35.562;2023-07-16T01:44:53;99371.28;;;22.04;55.11
73692;BME280;61996;49.910;35.562;2023-07-16T01:47:59;99376.66;;;22.04;54.92
73692;BME280;61996;49.910;35.562;2023-07-16T01:51:03;99376.50;;;22.06;55.04
73692;BME280;61996;49.910;35.562;2023-07-16T01:54:06;99380.72;;;22.08;54.91
73692;BME280;61996;49.910;35.562;2023-07-16T01:57:09;99377.50;;;22.05;54.95
73692;BME280;61996;49.910;35.562;2023-07-16T02:00:14;99385.53;;;22.05;55.05
73692;BME280;61996;49.910;35.562;2023-07-16T02:03:17;99391.88;;;22.04;55.10
73692;BME280;61996;49.910;35.562;2023-07-16T02:06:20;99392.06;;;22.02;54.87
73692;BME280;61996;49.910;35.562;2023-07-16T02:09:24;99389.06;;;22.05;55.04
73692;BME280;61996;49.910;35.562;2023-07-16T02:12:27;99402.09;;;22.00;54.90
73692;BME280;61996;49.910;35.562;2023-07-16T02:15:31;99411.63;;;22.03;55.05
73692;BME280;61996;49.910;35.562;2023-07-16T02:18:34;99415.31;;;22.02;55.05
73692;BME280;61996;49.910;35.562;2023-07-16T02:21:37;99410.63;;;22.04;55.29
73692;BME280;61996;49.910;35.562;2023-07-16T02:24:40;99411.63;;;22.03;55.13
73692;BME280;61996;49.910;35.562;2023-07-16T02:27:43;99410.13;;;22.00;55.15
73692;BME280;61996;49.910;35.562;2023-07-16T02:30:47;99410.31;;;22.07;55.13
73692;BME280;61996;49.910;35.562;2023-07-16T02:33:51;99409.13;;;22.01;55.14
73692;BME280;61996;49.910;35.562;2023-07-16T02:36:54;99404.59;;;22.02;54.88
73692;BME280;61996;49.910;35.562;2023-07-16T02:39:56;99403.78;;;22.01;55.02
73692;BME280;61996;49.910;35.562;2023-07-16T02:42:59;99412.38;;;22.13;55.03
73692;BME280;61996;49.910;35.562;2023-07-16T02:46:03;99407.00;;;22.21;54.31
73692;BME280;61996;49.910;35.562;2023-07-16T02:49:06;99402.13;;;22.08;55.11
73692;BME280;61996;49.910;35.562;2023-07-16T02:52:09;99398.06;;;22.04;55.03
73692;BME280;61996;49.910;35.562;2023-07-16T02:55:12;99400.91;;;22.03;55.06
73692;BME280;61996;49.910;35.562;2023-07-16T02:58:15;99400.44;;;22.07;54.84
73692;BME280;61996;49.910;35.562;2023-07-16T03:01:19;99410.63;;;22.04;55.01
73692;BME280;61996;49.910;35.562;2023-07-16T03:04:22;99413.69;;;22.09;55.16
73692;BME280;61996;49.910;35.562;2023-07-16T03:07:25;99416.66;;;22.06;54.97
73692;BME280;61996;49.910;35.562;2023-07-16T03:10:27;99426.38;;;22.07;55.38
73692;BME280;61996;49.910;35.562;2023-07-16T03:13:30;99421.03;;;22.07;55.02
73692;BME280;61996;49.910;35.562;2023-07-16T03:16:34;99431.72;;;22.07;54.98
73692;BME280;61996;49.910;35.562;2023-07-16T03:19:37;99432.56;;;22.07;55.22
73692;BME280;61996;49.910;35.562;2023-07-16T03:22:40;99429.59;;;22.10;55.02
73692;BME280;61996;49.910;35.562;2023-07-16T03:25:43;99427.91;;;22.09;54.94
73692;BME280;61996;49.910;35.562;2023-07-16T03:28:47;99436.94;;;22.08;55.28
73692;BME280;61996;49.910;35.562;2023-07-16T03:31:51;99427.91;;;22.09;54.90
73692;BME280;61996;49.910;35.562;2023-07-16T03:34:54;99434.41;;;22.07;55.35
73692;BME280;61996;49.910;35.562;2023-07-16T03:37:57;99426.91;;;22.10;55.26
73692;BME280;61996;49.910;35.562;2023-07-16T03:41:00;99436.47;;;22.13;54.75
73692;BME280;61996;49.910;35.562;2023-07-16T03:44:03;99435.09;;;22.09;54.96
73692;BME280;61996;49.910;35.562;2023-07-16T03:47:07;99429.59;;;22.10;54.88
73692;BME280;61996;49.910;35.562;2023-07-16T03:50:10;99433.63;;;22.14;55.24
73692;BME280;61996;49.910;35.562;2023-07-16T03:53:13;99433.63;;;22.14;55.24
73692;BME280;61996;49.910;35.562;2023-07-16T03:56:16;99442.16;;;22.18;54.82
73692;BME280;61996;49.910;35.562;2023-07-16T03:59:19;99436.66;;;22.20;54.90
73692;BME280;61996;49.910;35.562;2023-07-16T04:02:23;99453.03;;;22.16;55.09
73692;BME280;61996;49.910;35.562;2023-07-16T04:05:26;99454.56;;;22.19;55.01
73692;BME280;61996;49.910;35.562;2023-07-16T04:08:29;99445.53;;;22.20;55.02
73692;BME280;61996;49.910;35.562;2023-07-16T04:11:32;99443.84;;;22.19;54.88
73692;BME280;61996;49.910;35.562;2023-07-16T04:14:34;99443.50;;;22.22;55.21
73692;BME280;61996;49.910;35.562;2023-07-16T04:17:39;99442.31;;;22.25;54.93
73692;BME280;61996;49.910;35.562;2023-07-16T04:20:42;99447.69;;;22.25;55.17
73692;BME280;61996;49.910;35.562;2023-07-16T04:23:45;99455.56;;;22.26;54.83
73692;BME280;61996;49.910;35.562;2023-07-16T04:26:47;99457.72;;;22.23;55.13
73692;BME280;61996;49.910;35.562;2023-07-16T04:29:50;99464.59;;;22.25;55.31
73692;BME280;61996;49.910;35.562;2023-07-16T04:32:54;99470.66;;;22.27;55.35
73692;BME280;61996;49.910;35.562;2023-07-16T04:35:57;99475.16;;;22.27;55.10
73692;BME280;61996;49.910;35.562;2023-07-16T04:39:00;99483.38;;;22.33;55.01
73692;BME280;61996;49.910;35.562;2023-07-16T04:42:04;99472.31;;;22.36;55.04
73692;BME280;61996;49.910;35.562;2023-07-16T04:45:07;99470.81;;;22.34;54.98
73692;BME280;61996;49.910;35.562;2023-07-16T04:48:11;99473.66;;;22.32;55.25
73692;BME280;61996;49.910;35.562;2023-07-16T04:51:14;99484.22;;;22.34;54.90
73692;BME280;61996;49.910;35.562;2023-07-16T04:54:17;99488.41;;;22.36;55.09
73692;BME280;61996;49.910;35.562;2023-07-16T04:57:20;99491.06;;;22.36;54.76
73692;BME280;61996;49.910;35.562;2023-07-16T05:00:24;99488.91;;;22.40;55.02
73692;BME280;61996;49.910;35.562;2023-07-16T05:03:28;99490.75;;;22.39;54.59
73692;BME280;61996;49.910;35.562;2023-07-16T05:06:31;99490.25;;;22.44;54.78
73692;BME280;61996;49.910;35.562;2023-07-16T05:09:34;99499.81;;;22.47;54.83
73692;BME280;61996;49.910;35.562;2023-07-16T05:12:37;99513.88;;;22.49;54.76
73692;BME280;61996;49.910;35.562;2023-07-16T05:15:40;99514.88;;;22.48;54.74
73692;BME280;61996;49.910;35.562;2023-07-16T05:18:44;99509.66;;;22.46;54.57
73692;BME280;61996;49.910;35.562;2023-07-16T05:21:47;99513.03;;;22.48;54.72
73692;BME280;61996;49.910;35.562;2023-07-16T05:24:49;99511.53;;;22.54;54.42
73692;BME280;61996;49.910;35.562;2023-07-16T05:27:52;99514.06;;;22.55;54.49
73692;BME280;61996;49.910;35.562;2023-07-16T05:30:58;99508.53;;;22.57;54.68
73692;BME280;61996;49.910;35.562;2023-07-16T05:34:03;99517.41;;;22.57;54.30
73692;BME280;61996;49.910;35.562;2023-07-16T05:37:06;99513.88;;;22.57;54.00
73692;BME280;61996;49.910;35.562;2023-07-16T05:40:09;99513.88;;;22.57;54.48
73692;BME280;61996;49.910;35.562;2023-07-16T05:43:11;99512.69;;;22.59;54.09
73692;BME280;61996;49.910;35.562;2023-07-16T05:46:14;99518.06;;;22.59;54.29
73692;BME280;61996;49.910;35.562;2023-07-16T05:49:19;99512.56;;;22.61;54.03
73692;BME280;61996;49.910;35.562;2023-07-16T05:52:22;99519.25;;;22.65;54.29
73692;BME280;61996;49.910;35.562;2023-07-16T05:55:25;99521.44;;;22.61;53.99
73692;BME280;61996;49.910;35.562;2023-07-16T05:58:28;99514.22;;;22.62;54.17
73692;BME280;61996;49.910;35.562;2023-07-16T06:01:31;99514.56;;;22.67;54.32
73692;BME280;61996;49.910;35.562;2023-07-16T06:04:35;99510.06;;;22.67;53.99
73692;BME280;61996;49.910;35.562;2023-07-16T06:07:38;99516.25;;;22.68;53.79
73692;BME280;61996;49.910;35.562;2023-07-16T06:10:41;99518.59;;;22.71;54.32
73692;BME280;61996;49.910;35.562;2023-07-16T06:13:43;99513.22;;;22.71;54.04
73692;BME280;61996;49.910;35.562;2023-07-16T06:16:46;99515.72;;;22.73;53.98
73692;BME280;61996;49.910;35.562;2023-07-16T06:19:51;99520.78;;;22.76;54.08
73692;BME280;61996;49.910;35.562;2023-07-16T06:22:54;99517.25;;;22.75;53.47
73692;BME280;61996;49.910;35.562;2023-07-16T06:25:56;99522.28;;;22.78;53.80
73692;BME280;61996;49.910;35.562;2023-07-16T06:28:59;99523.09;;;22.79;53.48
73692;BME280;61996;49.910;35.562;2023-07-16T06:32:02;99523.78;;;22.81;53.73
73692;BME280;61996;49.910;35.562;2023-07-16T06:35:07;99519.94;;;22.83;53.84
73692;BME280;61996;49.910;35.562;2023-07-16T06:38:10;99516.25;;;22.84;54.03
73692;BME280;61996;49.910;35.562;2023-07-16T06:41:13;99522.78;;;22.82;54.16
73692;BME280;61996;49.910;35.562;2023-07-16T06:44:16;99520.59;;;22.85;54.03
73692;BME280;61996;49.910;35.562;2023-07-16T06:47:19;99524.28;;;22.84;53.76
73692;BME280;61996;49.910;35.562;2023-07-16T06:50:23;99522.44;;;22.85;53.54
73692;BME280;61996;49.910;35.562;2023-07-16T06:53:26;99529.19;;;22.89;53.87
73692;BME280;61996;49.910;35.562;2023-07-16T06:56:29;99525.13;;;22.85;53.57
73692;BME280;61996;49.910;35.562;2023-07-16T06:59:32;99524.84;;;22.88;53.66
73692;BME280;61996;49.910;35.562;2023-07-16T07:02:35;99521.97;;;22.89;53.35
73692;BME280;61996;49.910;35.562;2023-07-16T07:05:41;99535.22;;;22.91;53.19
73692;BME280;61996;49.910;35.562;2023-07-16T07:08:44;99539.75;;;22.90;53.71
73692;BME280;61996;49.910;35.562;2023-07-16T07:11:47;99538.56;;;22.93;53.70
73692;BME280;61996;49.910;35.562;2023-07-16T07:14:50;99531.53;;;22.92;53.46
73692;BME280;61996;49.910;35.562;2023-07-16T07:17:53;99522.47;;;22.93;53.70
73692;BME280;61996;49.910;35.562;2023-07-16T07:20:57;99519.13;;;22.91;53.85
73692;BME280;61996;49.910;35.562;2023-07-16T07:24:00;99523.66;;;22.90;53.39
73692;BME280;61996;49.910;35.562;2023-07-16T07:27:03;99526.16;;;22.92;53.53
73692;BME280;61996;49.910;35.562;2023-07-16T07:30:07;99515.44;;;22.92;53.33
73692;BME280;61996;49.910;35.562;2023-07-16T07:33:10;99527.00;;;22.92;53.45
73692;BME280;61996;49.910;35.562;2023-07-16T07:36:14;99521.97;;;22.89;53.76
73692;BME280;61996;49.910;35.562;2023-07-16T07:39:17;99516.09;;;22.94;53.68
73692;BME280;61996;49.910;35.562;2023-07-16T07:42:20;99516.63;;;22.97;53.42
73692;BME280;61996;49.910;35.562;2023-07-16T07:45:26;99514.25;;;22.94;53.84
73692;BME280;61996;49.910;35.562;2023-07-16T07:48:29;99511.56;;;22.94;53.55
73692;BME280;61996;49.910;35.562;2023-07-16T07:51:33;99508.88;;;22.94;53.48
73692;BME280;61996;49.910;35.562;2023-07-16T07:54:36;99509.22;;;23.00;53.21
73692;BME280;61996;49.910;35.562;2023-07-16T07:57:39;99503.22;;;22.97;53.66
73692;BME280;61996;49.910;35.562;2023-07-16T08:00:42;99504.38;;;22.95;53.72
73692;BME280;61996;49.910;35.562;2023-07-16T08:03:45;99491.81;;;22.95;53.97
73692;BME280;61996;49.910;35.562;2023-07-16T08:06:50;99496.00;;;22.98;53.59
73692;BME280;61996;49.910;35.562;2023-07-16T08:09:52;99500.34;;;22.99;53.41
73692;BME280;61996;49.910;35.562;2023-07-16T08:12:55;99502.38;;;22.97;53.74
73692;BME280;61996;49.910;35.562;2023-07-16T08:15:58;99497.84;;;22.97;53.49
73692;BME280;61996;49.910;35.562;2023-07-16T08:19:01;99493.13;;;23.00;53.94
73692;BME280;61996;49.910;35.562;2023-07-16T08:22:05;99491.47;;;22.98;53.85
73692;BME280;61996;49.910;35.562;2023-07-16T08:25:08;99491.97;;;23.02;54.08
73692;BME280;61996;49.910;35.562;2023-07-16T08:28:11;99496.47;;;23.02;54.18
73692;BME280;61996;49.910;35.562;2023-07-16T08:31:15;99494.50;;;23.04;53.56
73692;BME280;61996;49.910;35.562;2023-07-16T08:34:17;99490.13;;;23.03;53.72
73692;BME280;61996;49.910;35.562;2023-07-16T08:37:22;99485.75;;;23.02;53.76
73692;BME280;61996;49.910;35.562;2023-07-16T08:40:25;99493.78;;;23.02;53.99
73692;BME280;61996;49.910;35.562;2023-07-16T08:43:29;99493.78;;;23.02;53.58
73692;BME280;61996;49.910;35.562;2023-07-16T08:46:32;99490.97;;;23.03;53.49
73692;BME280;61996;49.910;35.562;2023-07-16T08:49:36;99492.63;;;23.04;53.30
73692;BME280;61996;49.910;35.562;2023-07-16T08:52:40;99503.38;;;23.04;53.38
73692;BME280;61996;49.910;35.562;2023-07-16T08:55:43;99496.34;;;23.03;53.56
73692;BME280;61996;49.910;35.562;2023-07-16T08:58:49;99503.19;;;23.06;53.34
73692;BME280;61996;49.910;35.562;2023-07-16T09:01:53;99490.78;;;23.05;53.64
73692;BME280;61996;49.910;35.562;2023-07-16T09:04:57;99491.81;;;23.04;53.52
73692;BME280;61996;49.910;35.562;2023-07-16T09:08:02;99495.97;;;23.06;53.55
73692;BME280;61996;49.910;35.562;2023-07-16T09:11:04;99496.81;;;23.07;53.44
73692;BME280;61996;49.910;35.562;2023-07-16T09:14:07;99486.09;;;23.07;53.29
73692;BME280;61996;49.910;35.562;2023-07-16T09:17:10;99490.44;;;23.08;53.28
73692;BME280;61996;49.910;35.562;2023-07-16T09:20:14;99491.44;;;23.07;53.38
73692;BME280;61996;49.910;35.562;2023-07-16T09:23:19;99482.41;;;23.08;53.04
73692;BME280;61996;49.910;35.562;2023-07-16T09:26:21;99481.25;;;23.10;53.07
73692;BME280;61996;49.910;35.562;2023-07-16T09:29:24;99490.13;;;23.11;53.35
73692;BME280;61996;49.910;35.562;2023-07-16T09:32:32;99480.22;;;23.11;53.54
73692;BME280;61996;49.910;35.562;2023-07-16T09:35:35;99479.38;;;23.11;53.45
73692;BME280;61996;49.910;35.562;2023-07-16T09:38:40;99489.09;;;23.12;53.67
73692;BME280;61996;49.910;35.562;2023-07-16T09:41:44;99487.25;;;23.12;53.36
73692;BME280;61996;49.910;35.562;2023-07-16T09:44:47;99489.09;;;23.12;53.40
73692;BME280;61996;49.910;35.562;2023-07-16T09:47:50;99493.47;;;23.13;53.65
73692;BME280;61996;49.910;35.562;2023-07-16T09:50:53;99490.94;;;23.11;53.61
73692;BME280;61996;49.910;35.562;2023-07-16T09:53:58;99489.09;;;23.12;53.51
73692;BME280;61996;49.910;35.562;2023-07-16T09:57:03;99477.19;;;23.14;53.33
73692;BME280;61996;49.910;35.562;2023-07-16T10:00:09;99480.72;;;23.15;53.54
73692;BME280;61996;49.910;35.562;2023-07-16T10:03:14;99480.72;;;23.15;53.38
73692;BME280;61996;49.910;35.562;2023-07-16T10:06:17;99479.72;;;23.16;53.67
73692;BME280;61996;49.910;35.562;2023-07-16T10:09:37;99478.72;;;23.17;53.48
73692;BME280;61996;49.910;35.562;2023-07-16T10:12:40;99475.19;;;23.16;53.70
73692;BME280;61996;49.910;35.562;2023-07-16T10:15:53;99479.56;;;23.17;53.78
73692;BME280;61996;49.910;35.562;2023-07-16T10:18:57;99481.41;;;23.17;53.44
73692;BME280;61996;49.910;35.562;2023-07-16T10:22:02;99469.66;;;23.18;53.32
73692;BME280;61996;49.910;35.562;2023-07-16T10:25:07;99466.13;;;23.17;53.73
73692;BME280;61996;49.910;35.562;2023-07-16T10:28:11;99470.31;;;23.20;53.25
73692;BME280;61996;49.910;35.562;2023-07-16T10:31:17;99468.63;;;23.19;53.65
73692;BME280;61996;49.910;35.562;2023-07-16T10:34:22;99470.31;;;23.20;53.51
73692;BME280;61996;49.910;35.562;2023-07-16T10:37:25;99467.44;;;23.21;53.37
73692;BME280;61996;49.910;35.562;2023-07-16T10:40:29;99466.28;;;23.24;53.45
73692;BME280;61996;49.910;35.562;2023-07-16T10:43:32;99464.25;;;23.26;53.46
73692;BME280;61996;49.910;35.562;2023-07-16T10:46:35;99466.94;;;23.26;53.15
73692;BME280;61996;49.910;35.562;2023-07-16T10:49:39;99466.78;;;23.28;53.16
73692;BME280;61996;49.910;35.562;2023-07-16T10:52:42;99470.28;;;23.28;53.25
73692;BME280;61996;49.910;35.562;2023-07-16T10:55:46;99474.63;;;23.29;53.24
73692;BME280;61996;49.910;35.562;2023-07-16T10:58:49;99480.00;;;23.29;53.45
73692;BME280;61996;49.910;35.562;2023-07-16T11:01:52;99478.34;;;23.28;53.47
73692;BME280;61996;49.910;35.562;2023-07-16T11:04:55;99470.63;;;23.33;53.05
73692;BME280;61996;49.910;35.562;2023-07-16T11:07:59;99480.34;;;23.34;53.05
73692;BME280;61996;49.910;35.562;2023-07-16T11:11:03;99481.84;;;23.37;52.86
73692;BME280;61996;49.910;35.562;2023-07-16T11:14:06;99481.69;;;23.38;52.95
73692;BME280;61996;49.910;35.562;2023-07-16T11:17:09;99474.47;;;23.39;52.94
73692;BME280;61996;49.910;35.562;2023-07-16T11:20:12;99479.00;;;23.38;52.95
73692;BME280;61996;49.910;35.562;2023-07-16T11:23:15;99481.00;;;23.36;53.03
73692;BME280;61996;49.910;35.562;2023-07-16T11:26:19;99483.69;;;23.44;52.92
73692;BME280;61996;49.910;35.562;2023-07-16T11:29:23;99476.78;;;23.42;53.07
73692;BME280;61996;49.910;35.562;2023-07-16T11:32:26;99475.63;;;23.44;52.78
73692;BME280;61996;49.910;35.562;2023-07-16T11:35:29;99487.34;;;23.43;52.84
73692;BME280;61996;49.910;35.562;2023-07-16T11:38:35;99487.34;;;23.51;52.58
73692;BME280;61996;49.910;35.562;2023-07-16T11:41:39;99484.66;;;23.51;52.55
73692;BME280;61996;49.910;35.562;2023-07-16T11:44:42;99478.47;;;23.51;52.92
73692;BME280;61996;49.910;35.562;2023-07-16T11:47:45;99480.59;;;23.56;52.90
73692;BME280;61996;49.910;35.562;2023-07-16T11:50:48;99484.31;;;23.55;53.05
73692;BME280;61996;49.910;35.562;2023-07-16T11:53:51;99489.34;;;23.58;52.64
73692;BME280;61996;49.910;35.562;2023-07-16T11:56:55;99482.63;;;23.62;52.61
73692;BME280;61996;49.910;35.562;2023-07-16T11:59:58;99470.88;;;23.63;52.47
73692;BME280;61996;49.910;35.562;2023-07-16T12:03:01;99480.09;;;23.60;52.76
73692;BME280;61996;49.910;35.562;2023-07-16T12:06:04;99474.91;;;23.59;52.93
73692;BME280;61996;49.910;35.562;2023-07-16T12:09:07;99480.59;;;23.56;53.07
73692;BME280;61996;49.910;35.562;2023-07-16T12:12:11;99481.28;;;23.58;52.86
73692;BME280;61996;49.910;35.562;2023-07-16T12:15:16;99484.63;;;23.60;52.85
73692;BME280;61996;49.910;35.562;2023-07-16T12:18:18;99490.31;;;23.57;52.89
73692;BME280;61996;49.910;35.562;2023-07-16T12:21:21;99482.13;;;23.58;52.83
73692;BME280;61996;49.910;35.562;2023-07-16T12:24:24;99471.72;;;23.63;53.06
73692;BME280;61996;49.910;35.562;2023-07-16T12:27:28;99478.19;;;23.77;52.62
73692;BME280;61996;49.910;35.562;2023-07-16T12:30:31;99470.00;;;23.70;52.92
73692;BME280;61996;49.910;35.562;2023-07-16T12:33:34;99463.66;;;23.71;52.57
73692;BME280;61996;49.910;35.562;2023-07-16T12:36:37;99465.41;;;23.87;52.47
73692;BME280;61996;49.910;35.562;2023-07-16T12:39:40;99458.66;;;23.91;52.72
73692;BME280;61996;49.910;35.562;2023-07-16T12:42:44;99467.78;;;23.82;52.58
73692;BME280;61996;49.910;35.562;2023-07-16T12:45:47;99459.41;;;23.77;52.82
73692;BME280;61996;49.910;35.562;2023-07-16T12:48:50;99460.41;;;23.76;52.66
73692;BME280;61996;49.910;35.562;2023-07-16T12:51:52;99474.88;;;23.75;52.90
73692;BME280;61996;49.910;35.562;2023-07-16T12:54:55;99468.66;;;23.74;53.01
73692;BME280;61996;49.910;35.562;2023-07-16T12:58:00;99468.47;;;23.76;52.72
73692;BME280;61996;49.910;35.562;2023-07-16T13:01:03;99477.03;;;23.79;52.99
73692;BME280;61996;49.910;35.562;2023-07-16T13:04:06;99471.25;;;23.91;52.73
73692;BME280;61996;49.910;35.562;2023-07-16T13:07:09;99471.09;;;23.92;52.60
73692;BME280;61996;49.910;35.562;2023-07-16T13:10:12;99467.28;;;23.87;52.55
73692;BME280;61996;49.910;35.562;2023-07-16T13:13:25;99477.50;;;23.83;52.76
73692;BME280;61996;49.910;35.562;2023-07-16T13:16:28;99469.44;;;23.83;52.63
73692;BME280;61996;49.910;35.562;2023-07-16T13:19:32;99472.78;;;23.85;52.66
73692;BME280;61996;49.910;35.562;2023-07-16T13:22:35;99469.28;;;23.85;52.88
73692;BME280;61996;49.910;35.562;2023-07-16T13:25:38;99470.09;;;23.85;52.84
73692;BME280;61996;49.910;35.562;2023-07-16T13:28:43;99463.00;;;24.00;52.54
73692;BME280;61996;49.910;35.562;2023-07-16T13:31:46;99463.66;;;24.02;52.73
73692;BME280;61996;49.910;35.562;2023-07-16T13:34:48;99469.53;;;23.98;52.70
73692;BME280;61996;49.910;35.562;2023-07-16T13:37:51;99460.13;;;24.02;52.33
73692;BME280;61996;49.910;35.562;2023-07-16T13:40:54;99460.66;;;23.97;52.81
73692;BME280;61996;49.910;35.562;2023-07-16T13:43:58;99464.34;;;23.96;52.82
73692;BME280;61996;49.910;35.562;2023-07-16T13:47:01;99460.84;;;23.96;52.94
73692;BME280;61996;49.910;35.562;2023-07-16T13:50:05;99459.81;;;23.97;52.54
73692;BME280;61996;49.910;35.562;2023-07-16T13:53:08;99452.59;;;23.97;52.88
73692;BME280;61996;49.910;35.562;2023-07-16T13:56:11;99450.59;;;23.99;52.70
73692;BME280;61996;49.910;35.562;2023-07-16T13:59:16;99458.47;;;24.01;52.77
73692;BME280;61996;49.910;35.562;2023-07-16T14:02:18;99454.94;;;24.00;52.85
73692;BME280;61996;49.910;35.562;2023-07-16T14:05:21;99453.75;;;24.03;52.80
73692;BME280;61996;49.910;35.562;2023-07-16T14:08:24;99458.94;;;24.04;52.42
73692;BME280;61996;49.910;35.562;2023-07-16T14:11:29;99461.44;;;24.06;52.83
73692;BME280;61996;49.910;35.562;2023-07-16T14:14:33;99447.16;;;24.05;52.81
73692;BME280;61996;49.910;35.562;2023-07-16T14:17:36;99451.69;;;24.13;52.70
73692;BME280;61996;49.910;35.562;2023-07-16T14:20:39;99455.22;;;24.14;52.71
73692;BME280;61996;49.910;35.562;2023-07-16T14:23:42;99441.72;;;24.22;52.60
73692;BME280;61996;49.910;35.562;2023-07-16T14:26:45;99441.41;;;24.17;52.50
73692;BME280;61996;49.910;35.562;2023-07-16T14:29:49;99443.91;;;24.18;52.61
73692;BME280;61996;49.910;35.562;2023-07-16T14:33:07;99438.72;;;24.17;52.50
73692;BME280;61996;49.910;35.562;2023-07-16T14:36:10;99445.09;;;24.16;52.36
73692;BME280;61996;49.910;35.562;2023-07-16T14:39:13;99445.41;;;24.21;52.09
73692;BME280;61996;49.910;35.562;2023-07-16T14:42:16;99438.00;;;24.23;52.12
73692;BME280;61996;49.910;35.562;2023-07-16T14:45:21;99446.41;;;24.20;52.49
73692;BME280;61996;49.910;35.562;2023-07-16T14:48:23;99435.78;;;24.26;52.40
73692;BME280;61996;49.910;35.562;2023-07-16T14:51:28;99440.88;;;24.21;52.09
73692;BME280;61996;49.910;35.562;2023-07-16T14:54:31;99450.94;;;24.19;52.51
73692;BME280;61996;49.910;35.562;2023-07-16T14:57:37;99444.59;;;24.20;52.39
73692;BME280;61996;49.910;35.562;2023-07-16T15:00:42;99444.41;;;24.22;52.16
73692;BME280;61996;49.910;35.562;2023-07-16T15:03:45;99444.41;;;24.22;52.01
73692;BME280;61996;49.910;35.562;2023-07-16T15:06:48;99441.03;;;24.20;52.37
73692;BME280;61996;49.910;35.562;2023-07-16T15:09:52;99439.31;;;24.27;52.32
73692;BME280;61996;49.910;35.562;2023-07-16T15:12:55;99433.28;;;24.25;52.36
73692;BME280;61996;49.910;35.562;2023-07-16T15:15:59;99438.84;;;24.23;52.08
73692;BME280;61996;49.910;35.562;2023-07-16T15:19:02;99448.09;;;24.21;52.29
73692;BME280;61996;49.910;35.562;2023-07-16T15:22:05;99451.75;;;24.28;52.21
73692;BME280;61996;49.910;35.562;2023-07-16T15:25:10;99450.06;;;24.27;52.31
73692;BME280;61996;49.910;35.562;2023-07-16T15:28:13;99436.16;;;24.23;52.12
73692;BME280;61996;49.910;35.562;2023-07-16T15:31:18;99443.38;;;24.23;52.37
73692;BME280;61996;49.910;35.562;2023-07-16T15:34:26;99433.66;;;24.22;52.34
73692;BME280;61996;49.910;35.562;2023-07-16T15:37:29;99430.47;;;24.18;52.34
73692;BME280;61996;49.910;35.562;2023-07-16T15:40:32;99437.69;;;24.18;52.23
73692;BME280;61996;49.910;35.562;2023-07-16T15:43:35;99441.91;;;24.20;52.42
73692;BME280;61996;49.910;35.562;2023-07-16T15:46:39;99448.09;;;24.21;52.38
73692;BME280;61996;49.910;35.562;2023-07-16T15:49:45;99437.94;;;24.31;52.17
73692;BME280;61996;49.910;35.562;2023-07-16T15:52:48;99447.91;;;24.22;52.54
73692;BME280;61996;49.910;35.562;2023-07-16T15:55:51;99442.00;;;24.27;51.91
73692;BME280;61996;49.910;35.562;2023-07-16T15:58:53;99444.41;;;24.22;52.39